Aviation Digital Data Service (ADDS)

Output produced by METARs form (2227 UTC 26 September 2016)
found at http://www.aviationweather.gov/adds/metars/
 
KATL 262147Z 2622/2724 14007KT P6SM SCT060 
     FM262300 15006KT P6SM VCSH SCT050 BKN120 
     FM270200 14004KT P6SM SCT050 BKN100 
     FM270700 17004KT P6SM SCT015 BKN100 
     FM271200 27003KT P6SM BKN025 BKN100 
     FM271600 28007KT P6SM VCSH BKN035 
     PROB30 2719/2723 5SM -TSRA OVC025CB